createdAt,value
2023-01-05T00:01:39.958Z,55.97
2023-01-05T00:04:07.602Z,55.99
2023-01-05T00:06:36.381Z,56.08
2023-01-05T00:09:04.817Z,56.10
2023-01-05T00:11:50.015Z,56.07
2023-01-05T00:14:38.587Z,56.14
2023-01-05T00:17:33.724Z,56.08
2023-01-05T00:20:28.582Z,56.06
2023-01-05T00:22:55.389Z,56.25
2023-01-05T00:25:23.827Z,56.02
2023-01-05T00:27:54.827Z,56.39
2023-01-05T00:30:24.921Z,56.05
2023-01-05T00:32:53.734Z,56.30
2023-01-05T00:35:21.717Z,56.13
2023-01-05T00:37:51.118Z,56.37
2023-01-05T00:40:23.657Z,56.18
2023-01-05T00:42:50.634Z,56.08
2023-01-05T00:45:22.122Z,56.46
2023-01-05T00:47:51.758Z,56.40
2023-01-05T00:50:18.977Z,56.55
2023-01-05T00:52:46.725Z,56.35
2023-01-05T00:55:13.470Z,56.08
2023-01-05T00:57:40.217Z,55.63
2023-01-05T01:00:20.099Z,56.28
2023-01-05T01:02:46.918Z,55.84
2023-01-05T01:05:14.165Z,56.12
2023-01-05T01:07:41.234Z,56.30
2023-01-05T01:10:09.511Z,56.28
2023-01-05T01:12:36.721Z,56.29
2023-01-05T01:15:04.366Z,56.06
2023-01-05T01:17:32.689Z,56.03
2023-01-05T01:19:59.628Z,56.20
2023-01-05T01:22:26.485Z,56.38
2023-01-05T01:24:53.203Z,56.06
2023-01-05T01:27:19.951Z,55.98
2023-01-05T01:29:46.599Z,56.22
2023-01-05T01:32:13.214Z,56.17
2023-01-05T01:34:39.961Z,56.26
2023-01-05T01:37:06.627Z,56.01
2023-01-05T01:39:38.851Z,56.04
2023-01-05T01:42:16.758Z,56.57
2023-01-05T01:44:48.969Z,56.26
2023-01-05T01:47:22.070Z,56.39
2023-01-05T01:49:50.391Z,56.47
2023-01-05T01:52:17.963Z,56.58
2023-01-05T01:54:48.320Z,56.44
2023-01-05T01:57:15.940Z,56.35
2023-01-05T01:59:43.495Z,56.26
2023-01-05T02:02:12.859Z,56.38
2023-01-05T02:04:40.490Z,56.31
2023-01-05T02:07:13.501Z,56.75
2023-01-05T02:09:43.178Z,56.71
2023-01-05T02:12:12.749Z,56.38
2023-01-05T02:15:10.542Z,56.53
2023-01-05T02:18:20.550Z,56.57
2023-01-05T02:20:59.525Z,56.57
2023-01-05T02:23:50.894Z,56.65
2023-01-05T02:26:52.530Z,56.75
2023-01-05T02:29:37.828Z,56.72
2023-01-05T02:32:18.180Z,56.69
2023-01-05T02:35:03.277Z,56.83
2023-01-05T02:37:37.181Z,56.74
2023-01-05T02:40:14.635Z,56.72
2023-01-05T02:42:43.981Z,56.70
2023-01-05T02:45:15.433Z,56.72
2023-01-05T02:47:46.450Z,56.91
2023-01-05T02:50:29.788Z,57.04
2023-01-05T03:04:48.979Z,56.82
2023-01-05T03:07:28.966Z,57.01
2023-01-05T03:09:56.044Z,56.40
2023-01-05T03:12:49.909Z,56.65
2023-01-05T03:15:21.942Z,56.76
2023-01-05T03:17:57.194Z,56.42
2023-01-05T03:20:31.006Z,56.48
2023-01-05T03:23:19.239Z,56.60
2023-01-05T03:26:24.184Z,56.75
2023-01-05T03:29:16.756Z,56.80
2023-01-05T03:32:10.569Z,56.61
2023-01-05T03:35:27.265Z,56.42
2023-01-05T03:38:13.454Z,56.86
2023-01-05T03:40:44.431Z,56.78
2023-01-05T03:43:11.812Z,56.75
2023-01-05T03:45:45.856Z,56.64
2023-01-05T03:48:21.085Z,56.69
2023-01-05T03:50:48.361Z,56.58
2023-01-05T03:53:16.832Z,56.54
2023-01-05T03:55:45.678Z,56.32
2023-01-05T03:58:13.800Z,56.76
2023-01-05T04:00:44.377Z,56.83
2023-01-05T04:03:13.713Z,56.78
2023-01-05T04:05:40.574Z,56.70
2023-01-05T04:08:08.013Z,56.78
2023-01-05T04:10:36.287Z,56.69
2023-01-05T04:13:03.288Z,56.50
2023-01-05T04:15:30.708Z,56.25
2023-01-05T04:18:01.398Z,56.24
2023-01-05T04:20:28.126Z,56.63
2023-01-05T04:22:54.903Z,56.61
2023-01-05T04:25:25.715Z,56.90
2023-01-05T04:28:01.518Z,56.73
2023-01-05T04:30:29.288Z,56.87
2023-01-05T04:32:56.427Z,56.78
2023-01-05T04:35:23.086Z,56.56
2023-01-05T04:37:51.302Z,56.54
2023-01-05T04:40:20.816Z,56.62
2023-01-05T04:42:51.831Z,56.70
2023-01-05T04:45:22.094Z,56.75
2023-01-05T04:47:49.283Z,57.03
2023-01-05T04:50:19.919Z,56.81
2023-01-05T04:52:48.109Z,56.96
2023-01-05T04:55:20.426Z,57.25
2023-01-05T04:57:47.102Z,56.76
2023-01-05T05:00:16.105Z,56.86
2023-01-05T05:02:46.468Z,56.36
2023-01-05T05:05:15.251Z,57.16
2023-01-05T05:07:42.455Z,56.88
2023-01-05T05:10:10.963Z,56.58
2023-01-05T05:12:42.414Z,56.60
2023-01-05T05:15:10.578Z,56.84
2023-01-05T05:17:40.918Z,56.85
2023-01-05T05:20:12.222Z,56.90
2023-01-05T05:22:42.103Z,57.00
2023-01-05T05:25:11.351Z,56.83
2023-01-05T05:27:42.571Z,56.83
2023-01-05T05:30:09.693Z,56.86
2023-01-05T05:32:42.433Z,56.77
2023-01-05T05:35:11.007Z,57.15
2023-01-05T05:37:37.859Z,56.95
2023-01-05T05:40:07.597Z,56.87
2023-01-05T05:42:34.302Z,57.14
2023-01-05T05:45:01.138Z,57.14
2023-01-05T05:47:27.687Z,57.04
2023-01-05T05:49:54.585Z,57.03
2023-01-05T05:52:21.484Z,56.84
2023-01-05T05:54:48.276Z,57.00
2023-01-05T05:57:15.189Z,56.58
2023-01-05T05:59:41.808Z,56.70
2023-01-05T06:02:08.612Z,56.98
2023-01-05T06:04:38.073Z,57.13
2023-01-05T06:07:04.694Z,57.40
2023-01-05T06:09:34.456Z,57.22
2023-01-05T06:12:05.455Z,57.29
2023-01-05T06:14:32.455Z,57.39
2023-01-05T06:16:59.299Z,57.29
2023-01-05T06:19:26.316Z,57.22
2023-01-05T06:21:55.569Z,57.22
2023-01-05T06:24:22.313Z,57.47
2023-01-05T06:26:51.800Z,57.49
2023-01-05T06:29:18.928Z,57.25
2023-01-05T06:31:49.384Z,57.42
2023-01-05T06:34:16.576Z,57.39
2023-01-05T06:36:43.380Z,57.21
2023-01-05T06:39:13.498Z,57.40
2023-01-05T06:41:40.354Z,57.33
2023-01-05T06:44:06.995Z,57.26
2023-01-05T06:46:34.096Z,57.47
2023-01-05T06:49:02.131Z,57.56
2023-01-05T06:51:28.765Z,57.50
2023-01-05T06:53:55.501Z,57.34
2023-01-05T06:56:23.368Z,57.28
2023-01-05T06:58:50.041Z,57.33
2023-01-05T07:01:19.908Z,57.37
2023-01-05T07:03:46.725Z,57.25
2023-01-05T07:06:17.083Z,57.50
2023-01-05T07:08:46.697Z,57.10
2023-01-05T07:11:16.866Z,57.34
2023-01-05T07:13:47.812Z,57.25
2023-01-05T07:16:14.765Z,57.26
2023-01-05T07:18:41.588Z,57.48
2023-01-05T07:21:11.498Z,57.24
2023-01-05T07:23:38.314Z,57.44
2023-01-05T07:26:06.872Z,57.41
2023-01-05T07:28:34.337Z,57.43
2023-01-05T07:31:01.430Z,57.49
2023-01-05T07:33:28.265Z,57.65
2023-01-05T07:35:55.211Z,57.68
2023-01-05T07:38:21.921Z,57.22
2023-01-05T07:40:48.749Z,57.44
2023-01-05T07:43:16.520Z,57.74
2023-01-05T07:45:43.810Z,57.83
2023-01-05T07:48:10.496Z,57.31
2023-01-05T07:50:37.336Z,57.13
2023-01-05T07:53:04.173Z,57.32
2023-01-05T07:55:31.058Z,57.29
2023-01-05T07:57:57.932Z,57.28
2023-01-05T08:00:24.592Z,57.49
2023-01-05T08:02:51.371Z,57.22
2023-01-05T08:05:18.112Z,57.60
2023-01-05T08:07:44.777Z,57.52
2023-01-05T08:10:29.782Z,57.52
2023-01-05T08:13:21.062Z,57.04
2023-01-05T08:15:51.336Z,56.77
2023-01-05T08:18:19.018Z,57.09
2023-01-05T08:20:56.337Z,56.94
2023-01-05T08:23:26.573Z,56.58
2023-01-05T08:25:55.240Z,56.35
2023-01-05T08:28:23.427Z,55.97
2023-01-05T08:30:52.664Z,56.09
2023-01-05T08:33:19.418Z,56.25
2023-01-05T08:35:46.172Z,55.64
2023-01-05T08:38:12.860Z,55.60
2023-01-05T08:40:39.571Z,56.03
2023-01-05T08:43:06.704Z,55.64
2023-01-05T08:45:33.979Z,55.56
2023-01-05T08:48:02.074Z,55.20
2023-01-05T08:50:29.063Z,55.42
2023-01-05T08:52:55.782Z,55.41
2023-01-05T08:55:22.910Z,55.00
2023-01-05T08:57:50.048Z,55.12
2023-01-05T09:00:17.463Z,54.99
2023-01-05T09:02:45.059Z,55.00
2023-01-05T09:05:12.015Z,54.97
2023-01-05T09:07:38.901Z,54.71
2023-01-05T09:10:06.887Z,54.56
2023-01-05T09:12:37.330Z,54.95
2023-01-05T09:15:05.735Z,54.77
2023-01-05T09:17:33.836Z,54.86
2023-01-05T09:20:03.350Z,54.42
2023-01-05T09:22:33.528Z,54.32
2023-01-05T09:25:00.490Z,54.30
2023-01-05T09:27:27.152Z,54.34
2023-01-05T09:29:53.939Z,54.49
2023-01-05T09:32:20.669Z,54.61
2023-01-05T09:34:47.390Z,54.56
2023-01-05T09:37:14.117Z,54.43
2023-01-05T09:39:40.952Z,54.07
2023-01-05T09:42:14.983Z,54.42
2023-01-05T09:44:57.066Z,53.95
2023-01-05T09:47:42.271Z,53.91
2023-01-05T09:50:21.786Z,54.10
2023-01-05T09:52:51.174Z,54.12
2023-01-05T09:55:20.319Z,54.22
2023-01-05T09:57:54.722Z,54.07
2023-01-05T10:00:26.672Z,53.76
2023-01-05T10:03:01.935Z,53.60
2023-01-05T10:05:30.460Z,53.64
2023-01-05T10:08:18.451Z,53.39
2023-01-05T10:11:09.742Z,53.67
2023-01-05T10:13:41.477Z,53.40
2023-01-05T10:16:16.609Z,53.65
2023-01-05T10:18:43.430Z,53.46
2023-01-05T10:21:30.797Z,53.46
2023-01-05T10:24:11.684Z,53.33
2023-01-05T10:27:23.660Z,52.99
2023-01-05T10:29:44.777Z,52.94
2023-01-05T10:32:24.116Z,53.11
2023-01-05T10:35:07.046Z,52.69
2023-01-05T10:37:44.877Z,52.42
2023-01-05T10:40:35.689Z,52.49
2023-01-05T10:43:04.966Z,52.33
2023-01-05T10:45:31.828Z,52.12
2023-01-05T10:47:59.800Z,52.18
2023-01-05T10:50:39.038Z,51.88
2023-01-05T10:53:11.649Z,51.93
2023-01-05T10:55:47.209Z,51.91
2023-01-05T10:58:28.450Z,51.64
2023-01-05T11:01:19.936Z,51.56
2023-01-05T11:06:37.543Z,51.58
2023-01-05T11:09:22.538Z,51.75
2023-01-05T11:11:58.368Z,51.89
2023-01-05T11:14:27.277Z,51.89
2023-01-05T11:17:01.810Z,51.57
2023-01-05T11:19:35.844Z,52.04
2023-01-05T11:22:03.083Z,51.84
2023-01-05T11:24:34.949Z,52.01
2023-01-05T11:27:24.724Z,51.74
2023-01-05T11:30:16.172Z,51.85
2023-01-05T11:32:47.742Z,52.18
2023-01-05T11:35:25.275Z,52.07
2023-01-05T11:37:52.357Z,52.09
2023-01-05T11:40:23.358Z,52.03
2023-01-05T11:42:50.223Z,52.25
2023-01-05T11:45:20.756Z,52.09
2023-01-05T11:47:51.952Z,52.09
2023-01-05T11:50:26.328Z,52.27
2023-01-05T11:52:55.549Z,52.40
2023-01-05T11:55:38.337Z,52.31
2023-01-05T11:58:13.982Z,52.31
2023-01-05T12:01:08.175Z,52.15
2023-01-05T12:03:40.882Z,52.97
2023-01-05T12:06:15.391Z,52.87
2023-01-05T12:08:55.612Z,53.21
2023-01-05T12:11:26.715Z,53.01
2023-01-05T12:13:55.997Z,52.77
2023-01-05T12:16:28.761Z,52.60
2023-01-05T12:19:21.722Z,52.64
2023-01-05T12:22:03.552Z,52.70
2023-01-05T12:24:53.128Z,52.39
2023-01-05T12:27:40.305Z,52.57
2023-01-05T12:34:08.523Z,52.55
2023-01-05T12:36:38.491Z,52.58
2023-01-05T12:39:15.704Z,52.51
2023-01-05T12:41:45.639Z,52.68
2023-01-05T12:44:37.473Z,52.57
2023-01-05T12:47:31.718Z,52.57
2023-01-05T12:50:06.325Z,52.61
2023-01-05T12:52:46.145Z,52.85
2023-01-05T12:55:21.106Z,52.47
2023-01-05T12:57:57.361Z,52.72
2023-01-05T13:00:26.402Z,52.61
2023-01-05T13:03:03.555Z,52.58
2023-01-05T13:05:51.053Z,52.53
2023-01-05T13:08:28.910Z,52.96
2023-01-05T13:11:04.154Z,52.96
2023-01-05T13:13:39.774Z,52.72
2023-01-05T13:16:21.482Z,52.55
2023-01-05T13:19:12.299Z,52.96
2023-01-05T13:21:44.136Z,52.65
2023-01-05T13:24:28.027Z,52.85
2023-01-05T13:26:55.204Z,52.81
2023-01-05T13:29:26.704Z,52.65
2023-01-05T13:32:27.884Z,52.79
2023-01-05T13:35:13.172Z,52.61
2023-01-05T13:40:44.821Z,53.17
2023-01-05T13:43:39.149Z,53.32
2023-01-05T13:46:17.921Z,53.47
2023-01-05T13:49:04.077Z,53.59
2023-01-05T13:51:57.662Z,53.41
2023-01-05T13:55:02.219Z,53.52
2023-01-05T13:57:38.792Z,53.30
2023-01-05T14:00:20.695Z,52.97
2023-01-05T14:03:06.997Z,52.94
2023-01-05T14:05:48.317Z,52.80
2023-01-05T14:08:22.052Z,53.12
2023-01-05T14:11:10.577Z,52.93
2023-01-05T14:13:50.840Z,52.88
2023-01-05T14:16:35.771Z,52.97
2023-01-05T14:19:28.701Z,52.87
2023-01-05T14:21:59.726Z,52.89
2023-01-05T14:24:31.973Z,52.65
2023-01-05T14:27:04.837Z,52.81
2023-01-05T14:29:55.248Z,52.78
2023-01-05T14:32:27.796Z,52.98
2023-01-05T14:35:01.258Z,53.24
2023-01-05T14:37:41.409Z,53.03
2023-01-05T14:40:36.259Z,53.10
2023-01-05T14:43:07.135Z,52.85
2023-01-05T14:45:37.517Z,53.02
2023-01-05T14:48:24.479Z,52.99
2023-01-05T14:51:24.020Z,53.31
2023-01-05T14:53:52.480Z,53.23
2023-01-05T14:56:23.353Z,53.41
2023-01-05T14:58:57.557Z,53.28
2023-01-05T15:01:53.444Z,53.29
2023-01-05T15:10:21.403Z,53.60
2023-01-05T15:13:00.201Z,53.76
2023-01-05T15:15:47.972Z,53.60
2023-01-05T15:18:33.197Z,53.62
2023-01-05T15:21:02.743Z,53.77
2023-01-05T15:23:51.262Z,53.66
2023-01-05T15:26:32.716Z,53.58
2023-01-05T15:31:46.270Z,53.56
2023-01-05T15:34:21.366Z,53.76
2023-01-05T15:36:54.298Z,53.26
2023-01-05T15:39:44.275Z,53.61
2023-01-05T15:42:16.528Z,53.38
2023-01-05T15:44:46.872Z,53.60
2023-01-05T15:47:13.849Z,53.80
2023-01-05T15:49:40.924Z,53.76
2023-01-05T15:52:28.440Z,53.44
2023-01-05T15:55:01.033Z,53.54
2023-01-05T15:57:28.125Z,53.55
2023-01-05T15:59:55.500Z,53.70
2023-01-05T16:02:29.982Z,53.76
2023-01-05T16:05:17.382Z,53.35
2023-01-05T16:08:08.366Z,53.48
2023-01-05T16:10:48.954Z,53.56
2023-01-05T16:13:29.290Z,53.56
2023-01-05T16:15:59.037Z,53.40
2023-01-05T16:18:37.554Z,53.49
2023-01-05T16:21:32.201Z,53.33
2023-01-05T16:24:13.105Z,53.50
2023-01-05T16:26:40.376Z,53.67
2023-01-05T16:29:34.158Z,53.38
2023-01-05T16:32:01.852Z,53.61
2023-01-05T16:34:31.335Z,53.61
2023-01-05T16:36:59.248Z,53.47
2023-01-05T16:39:26.502Z,53.64
2023-01-05T16:42:29.806Z,53.48
2023-01-05T16:44:57.809Z,53.52
2023-01-05T16:47:33.345Z,53.50
2023-01-05T16:50:00.154Z,53.40
2023-01-05T16:52:30.974Z,53.68
2023-01-05T16:55:28.077Z,53.49
2023-01-05T16:57:55.951Z,53.50
2023-01-05T17:00:25.617Z,53.58
2023-01-05T17:02:54.264Z,53.68
2023-01-05T17:05:27.240Z,53.63
2023-01-05T17:08:18.580Z,53.37
2023-01-05T17:10:46.169Z,53.50
2023-01-05T17:13:20.911Z,53.54
2023-01-05T17:15:50.683Z,53.47
2023-01-05T17:18:24.289Z,53.27
2023-01-05T17:20:53.414Z,53.46
2023-01-05T17:23:33.574Z,53.35
2023-01-05T17:26:04.749Z,53.47
2023-01-05T17:28:31.406Z,53.43
2023-01-05T17:30:58.066Z,53.16
2023-01-05T17:33:24.817Z,53.14
2023-01-05T17:35:51.922Z,53.44
2023-01-05T17:38:19.057Z,53.33
2023-01-05T17:40:45.757Z,53.46
2023-01-05T17:43:12.347Z,53.46
2023-01-05T17:45:43.721Z,53.31
2023-01-05T17:50:38.413Z,53.18
2023-01-05T17:53:05.216Z,53.58
2023-01-05T17:55:32.176Z,53.55
2023-01-05T17:57:59.608Z,53.25
2023-01-05T18:00:29.260Z,53.15
2023-01-05T18:02:56.376Z,53.29
2023-01-05T18:05:23.343Z,53.20
2023-01-05T18:07:50.195Z,53.60
2023-01-05T18:10:22.407Z,53.58
2023-01-05T18:12:49.473Z,53.46
2023-01-05T18:15:16.740Z,53.59
2023-01-05T18:17:43.564Z,53.39
2023-01-05T18:20:12.945Z,53.54
2023-01-05T18:22:40.157Z,53.40
2023-01-05T18:27:39.433Z,53.53
2023-01-05T18:30:07.638Z,53.25
2023-01-05T18:32:34.375Z,53.60
2023-01-05T18:35:04.350Z,53.24
2023-01-05T18:37:34.404Z,53.39
2023-01-05T18:40:01.248Z,53.15
2023-01-05T18:42:28.116Z,53.39
2023-01-05T18:44:54.781Z,53.70
2023-01-05T18:47:21.455Z,53.41
2023-01-05T18:49:48.242Z,53.32
2023-01-05T18:52:14.877Z,53.65
2023-01-05T18:54:41.864Z,53.49
2023-01-05T18:57:08.554Z,53.38
2023-01-05T18:59:35.231Z,53.65
2023-01-05T19:02:02.061Z,53.43
2023-01-05T19:04:28.919Z,53.73
2023-01-05T19:06:56.181Z,53.84
2023-01-05T19:09:22.768Z,53.28
2023-01-05T19:11:49.570Z,53.56
2023-01-05T19:14:17.934Z,53.48
2023-01-05T19:16:44.779Z,53.75
2023-01-05T19:19:15.001Z,53.41
2023-01-05T19:21:45.137Z,53.83
2023-01-05T19:24:23.901Z,53.40
2023-01-05T19:26:50.567Z,53.90
2023-01-05T19:29:18.465Z,53.87
2023-01-05T19:31:47.005Z,53.77
2023-01-05T19:34:17.220Z,53.81
2023-01-05T19:36:45.498Z,53.65
2023-01-05T19:39:16.793Z,54.17
2023-01-05T19:41:46.636Z,53.96
2023-01-05T19:44:16.630Z,54.08
2023-01-05T19:46:44.055Z,54.27
2023-01-05T19:49:17.584Z,53.88
2023-01-05T19:51:45.446Z,53.94
2023-01-05T19:54:13.772Z,54.10
2023-01-05T19:56:42.465Z,54.21
2023-01-05T19:59:16.148Z,54.39
2023-01-05T20:01:43.254Z,54.47
2023-01-05T20:04:10.210Z,54.27
2023-01-05T20:06:39.047Z,54.37
2023-01-05T20:09:10.262Z,54.50
2023-01-05T20:11:45.159Z,54.39
2023-01-05T20:14:26.494Z,54.25
2023-01-05T20:16:56.336Z,54.71
2023-01-05T20:19:26.640Z,54.70
2023-01-05T20:21:54.544Z,54.49
2023-01-05T20:24:24.050Z,54.14
2023-01-05T20:27:02.971Z,54.20
2023-01-05T20:29:30.802Z,54.47
2023-01-05T20:32:04.587Z,54.31
2023-01-05T20:34:35.522Z,54.04
2023-01-05T20:37:05.227Z,53.85
2023-01-05T20:39:32.308Z,53.75
2023-01-05T20:42:04.838Z,54.05
2023-01-05T20:44:35.026Z,53.76
2023-01-05T20:47:03.300Z,53.89
2023-01-05T20:49:30.471Z,53.81
2023-01-05T20:51:57.755Z,53.79
2023-01-05T20:54:25.156Z,54.28
2023-01-05T20:56:52.097Z,53.80
2023-01-05T20:59:24.813Z,53.91
2023-01-05T21:01:51.749Z,54.28
2023-01-05T21:04:19.439Z,54.18
2023-01-05T21:06:47.358Z,54.13
2023-01-05T21:09:14.921Z,54.08
2023-01-05T21:11:41.966Z,54.16
2023-01-05T21:14:09.321Z,54.46
2023-01-05T21:16:43.373Z,54.61
2023-01-05T21:19:12.812Z,55.47
2023-01-05T21:21:39.663Z,54.88
2023-01-05T21:24:07.878Z,54.98
2023-01-05T21:26:36.864Z,54.65
2023-01-05T21:29:06.114Z,54.86
2023-01-05T21:31:33.485Z,54.57
2023-01-05T21:34:01.060Z,54.46
2023-01-05T21:36:30.135Z,54.28
2023-01-05T21:39:03.811Z,54.66
2023-01-05T21:41:50.880Z,54.85
2023-01-05T21:44:18.694Z,54.78
2023-01-05T21:46:46.029Z,54.73
2023-01-05T21:49:14.404Z,55.21
2023-01-05T21:51:59.807Z,54.81
2023-01-05T21:54:45.695Z,55.13
2023-01-05T21:57:12.977Z,55.14
2023-01-05T21:59:40.152Z,55.21
2023-01-05T22:02:07.449Z,55.33
2023-01-05T22:04:34.257Z,55.56
2023-01-05T22:07:01.313Z,55.60
2023-01-05T22:09:28.037Z,55.50
2023-01-05T22:11:54.656Z,55.58
2023-01-05T22:14:21.310Z,55.88
2023-01-05T22:16:48.036Z,55.54
2023-01-05T22:19:14.808Z,55.59
2023-01-05T22:21:41.482Z,56.11
2023-01-05T22:24:09.514Z,55.76
2023-01-05T22:26:36.345Z,56.10
2023-01-05T22:29:03.586Z,56.21
2023-01-05T22:31:31.476Z,55.87
2023-01-05T22:34:00.489Z,55.98
2023-01-05T22:36:28.995Z,56.08
2023-01-05T22:38:56.299Z,55.97
2023-01-05T22:41:26.800Z,56.33
2023-01-05T22:43:53.699Z,56.32
2023-01-05T22:46:23.810Z,56.47
2023-01-05T22:48:52.612Z,56.51
2023-01-05T22:51:27.938Z,56.63
2023-01-05T22:53:55.192Z,56.40
2023-01-05T22:56:23.183Z,56.69
2023-01-05T22:58:50.236Z,56.63
2023-01-05T23:01:38.716Z,56.41
2023-01-05T23:04:07.070Z,56.73
2023-01-05T23:06:34.124Z,56.66
2023-01-05T23:09:01.933Z,56.99
2023-01-05T23:11:31.911Z,57.14
2023-01-05T23:14:00.131Z,56.74
2023-01-05T23:16:27.553Z,56.87
2023-01-05T23:18:54.751Z,56.82
2023-01-05T23:21:23.272Z,56.89
2023-01-05T23:23:55.383Z,56.80
2023-01-05T23:26:23.494Z,57.01
2023-01-05T23:28:50.274Z,57.05
2023-01-05T23:31:19.167Z,56.90
2023-01-05T23:33:47.700Z,56.94
2023-01-05T23:36:15.954Z,57.02
2023-01-05T23:38:43.116Z,56.88
2023-01-05T23:41:11.409Z,57.27
2023-01-05T23:43:39.945Z,57.27
2023-01-05T23:46:12.288Z,57.49
2023-01-05T23:48:39.627Z,57.40
2023-01-05T23:51:11.365Z,57.52
2023-01-05T23:53:38.030Z,57.33
2023-01-05T23:56:26.100Z,57.28
2023-01-05T23:59:04.380Z,57.24
